Time;durP1;ratioP1;P1;durP2;ratioP2;P2;SDS_P1;SDS_P2;PMS_P1;PMS_P2;Temp;Humidity;BMP_temperature;BMP_pressure;BME280_temperature;BME280_humidity;BME280_pressure;Samples;Min_cycle;Max_cycle;Signal;HPM_P1;HPM_P2
2023/06/20 00:00:50;;;;;;;3.50;2.27;;;26.10;58.10;;;;;;4996251;28;20173;-78
2023/06/20 00:03:16;;;;;;;3.23;2.17;;;26.00;58.20;;;;;;5012847;28;20909;-78
2023/06/20 00:05:43;;;;;;;2.33;1.83;;;26.00;58.50;;;;;;4996522;28;20600;-78
2023/06/20 00:08:09;;;;;;;4.37;2.50;;;26.00;59.20;;;;;;5029982;28;20588;-78
2023/06/20 00:10:35;;;;;;;4.20;3.07;;;26.00;58.90;;;;;;4990954;28;20659;-78
2023/06/20 00:13:00;;;;;;;4.07;2.70;;;26.00;59.10;;;;;;4992121;28;20185;-78
2023/06/20 00:15:27;;;;;;;3.53;2.63;;;26.00;60.00;;;;;;4992912;28;20673;-78
2023/06/20 00:18:00;;;;;;;4.43;2.30;;;26.00;59.70;;;;;;5020096;28;20588;-78
2023/06/20 00:20:30;;;;;;;3.60;2.50;;;25.90;59.90;;;;;;5011820;28;20616;-78
2023/06/20 00:22:57;;;;;;;3.53;2.47;;;25.90;61.10;;;;;;5016068;28;20596;-78
2023/06/20 00:25:23;;;;;;;3.20;2.47;;;25.90;61.00;;;;;;5012023;28;20635;-78
2023/06/20 00:27:48;;;;;;;3.73;3.10;;;25.80;61.20;;;;;;5029951;28;20572;-78
2023/06/20 00:30:15;;;;;;;3.47;2.57;;;25.80;61.50;;;;;;5011133;28;20631;-78
2023/06/20 00:32:41;;;;;;;6.90;2.97;;;25.80;61.70;;;;;;5012259;28;20569;-78
2023/06/20 00:35:07;;;;;;;3.50;3.13;;;25.80;62.20;;;;;;4987001;28;20629;-78
2023/06/20 00:37:36;;;;;;;3.50;2.60;;;25.80;62.50;;;;;;4994993;28;20170;-78
2023/06/20 00:40:04;;;;;;;4.27;3.00;;;25.70;62.70;;;;;;4992146;28;20598;-78
2023/06/20 00:42:30;;;;;;;4.37;2.60;;;25.70;63.20;;;;;;4972275;28;20701;-78
2023/06/20 00:44:56;;;;;;;4.00;2.53;;;25.70;63.50;;;;;;4999136;28;20712;-78
2023/06/20 00:47:23;;;;;;;4.10;2.80;;;25.60;64.20;;;;;;4992280;28;20182;-78
2023/06/20 00:49:51;;;;;;;3.40;2.87;;;25.50;64.50;;;;;;4992506;28;20210;-78
2023/06/20 00:52:19;;;;;;;4.23;2.47;;;25.50;65.40;;;;;;4991396;28;20593;-79
2023/06/20 00:54:47;;;;;;;4.50;2.57;;;25.50;66.10;;;;;;4975961;28;20612;-78
2023/06/20 00:57:17;;;;;;;5.60;3.30;;;25.40;66.60;;;;;;5009980;28;20569;-79
2023/06/20 00:59:44;;;;;;;5.50;3.60;;;25.30;67.70;;;;;;4999235;28;21203;-78
2023/06/20 01:02:10;;;;;;;3.90;2.87;;;25.30;68.20;;;;;;4979202;28;20688;-78
2023/06/20 01:04:39;;;;;;;4.80;2.97;;;25.20;68.70;;;;;;4994359;28;20605;-78
2023/06/20 01:07:31;;;;;;;3.53;2.60;;;25.10;69.30;;;;;;4988017;28;20592;-78
2023/06/20 01:10:08;;;;;;;4.90;2.80;;;25.10;70.80;;;;;;4994769;28;20633;-78
2023/06/20 01:12:49;;;;;;;3.93;2.77;;;25.00;71.00;;;;;;4995570;28;20593;-78
2023/06/20 01:15:25;;;;;;;4.10;3.30;;;24.90;72.10;;;;;;4961969;28;20612;-77
2023/06/20 01:18:10;;;;;;;3.80;2.87;;;24.90;72.80;;;;;;4980272;28;20607;-78
2023/06/20 01:20:44;;;;;;;6.70;3.17;;;24.80;74.10;;;;;;4962798;28;20589;-78
2023/06/20 01:23:16;;;;;;;5.20;2.70;;;24.80;74.50;;;;;;4995758;28;20605;-78
2023/06/20 01:26:11;;;;;;;4.70;2.80;;;24.70;74.70;;;;;;4990638;28;20710;-78
2023/06/20 01:28:56;;;;;;;3.77;2.70;;;24.70;76.30;;;;;;4976103;28;20577;-78
2023/06/20 01:31:30;;;;;;;4.43;3.10;;;24.70;77.40;;;;;;4996678;28;20655;-78
2023/06/20 01:34:08;;;;;;;4.50;2.60;;;24.70;77.60;;;;;;5002607;28;20889;-78
2023/06/20 01:36:42;;;;;;;3.77;2.70;;;24.70;77.90;;;;;;5007411;28;20764;-78
2023/06/20 01:39:14;;;;;;;3.33;2.27;;;24.60;79.60;;;;;;4998958;28;21146;-78
2023/06/20 01:41:44;;;;;;;4.07;3.00;;;24.60;79.60;;;;;;4997713;28;20659;-78
2023/06/20 01:44:13;;;;;;;3.93;3.40;;;24.50;80.10;;;;;;4973882;28;20618;-78
2023/06/20 01:46:40;;;;;;;4.50;3.27;;;24.50;81.00;;;;;;5011492;28;20714;-78
2023/06/20 01:49:07;;;;;;;5.20;3.10;;;24.50;81.40;;;;;;4994930;28;21157;-78
2023/06/20 01:51:33;;;;;;;3.80;3.13;;;24.40;81.90;;;;;;4962282;28;20589;-78
2023/06/20 01:54:03;;;;;;;5.17;3.20;;;24.40;83.00;;;;;;4994590;28;20996;-78
2023/06/20 01:56:29;;;;;;;4.00;2.37;;;24.40;83.60;;;;;;4978485;28;20265;-78
2023/06/20 01:58:56;;;;;;;4.37;3.43;;;24.40;84.00;;;;;;4994638;28;20581;-78
2023/06/20 02:01:24;;;;;;;4.00;2.40;;;24.40;84.70;;;;;;4981647;28;20632;-78
2023/06/20 02:03:52;;;;;;;3.47;2.83;;;24.30;85.30;;;;;;4998346;28;20603;-77
2023/06/20 02:06:21;;;;;;;3.47;3.00;;;24.30;85.70;;;;;;5013560;28;20604;-78
2023/06/20 02:08:48;;;;;;;4.23;3.10;;;24.30;86.50;;;;;;4998145;28;20648;-78
2023/06/20 02:11:14;;;;;;;4.30;3.10;;;24.30;87.00;;;;;;5001298;28;20596;-78
2023/06/20 02:13:41;;;;;;;3.30;2.33;;;24.20;88.00;;;;;;4994636;28;20629;-78
2023/06/20 02:16:08;;;;;;;5.50;3.50;;;24.20;88.60;;;;;;4994624;28;20589;-78
2023/06/20 02:18:36;;;;;;;3.93;3.47;;;24.10;89.90;;;;;;4962826;28;20589;-78
2023/06/20 02:21:09;;;;;;;5.37;4.00;;;24.00;90.00;;;;;;4993940;28;20706;-78
2023/06/20 02:23:38;;;;;;;3.80;3.23;;;24.00;90.40;;;;;;4994745;28;21214;-77
2023/06/20 02:26:13;;;;;;;4.57;3.07;;;24.00;90.70;;;;;;4978124;28;20672;-77
2023/06/20 02:28:45;;;;;;;5.37;3.67;;;24.00;91.20;;;;;;4993902;28;20597;-77
2023/06/20 02:31:16;;;;;;;4.10;3.33;;;24.00;91.50;;;;;;4961994;28;20597;-77
2023/06/20 02:33:43;;;;;;;4.23;2.83;;;24.00;91.70;;;;;;4977769;28;20640;-77
2023/06/20 02:36:10;;;;;;;3.43;2.63;;;24.00;91.90;;;;;;4982989;28;20609;-77
2023/06/20 02:38:36;;;;;;;3.10;2.73;;;24.00;92.10;;;;;;4993933;28;20596;-78
2023/06/20 02:41:04;;;;;;;3.77;3.40;;;24.00;92.30;;;;;;4961499;28;20672;-77
2023/06/20 02:43:30;;;;;;;3.07;2.70;;;24.00;92.60;;;;;;4977735;28;21188;-77
2023/06/20 02:46:17;;;;;;;3.43;3.10;;;24.10;92.80;;;;;;4995370;28;20592;-78
2023/06/20 02:49:01;;;;;;;4.33;2.83;;;24.10;93.50;;;;;;4995055;28;20171;-77
2023/06/20 02:51:34;;;;;;;3.60;2.87;;;24.10;93.70;;;;;;4993364;28;21163;-77
2023/06/20 02:54:17;;;;;;;2.57;2.20;;;24.20;93.80;;;;;;4977911;28;20612;-77
2023/06/20 02:56:50;;;;;;;4.53;3.23;;;24.10;93.80;;;;;;4993680;28;20589;-77
2023/06/20 02:59:17;;;;;;;5.80;3.07;;;24.10;94.30;;;;;;5000496;28;20600;-77
2023/06/20 03:01:47;;;;;;;3.37;2.80;;;24.10;94.40;;;;;;4995482;28;20632;-78
2023/06/20 03:04:13;;;;;;;4.53;3.73;;;24.10;94.90;;;;;;4994327;28;20692;-78
2023/06/20 03:06:43;;;;;;;3.63;3.07;;;24.00;95.00;;;;;;4977114;28;20620;-78
2023/06/20 03:09:10;;;;;;;4.40;3.90;;;24.00;95.30;;;;;;4977344;28;20589;-77
2023/06/20 03:11:36;;;;;;;3.83;3.43;;;24.00;95.50;;;;;;4992769;28;20985;-77
2023/06/20 03:14:03;;;;;;;5.37;3.90;;;23.90;95.80;;;;;;4973943;28;20621;-77
2023/06/20 03:16:30;;;;;;;3.70;2.80;;;23.90;96.00;;;;;;4965681;28;20600;-78
2023/06/20 03:18:56;;;;;;;3.30;3.00;;;23.90;96.30;;;;;;5004623;28;20592;-78
2023/06/20 03:21:25;;;;;;;4.23;3.10;;;23.80;96.50;;;;;;5011973;28;20961;-78
2023/06/20 03:23:52;;;;;;;4.13;3.50;;;23.80;96.70;;;;;;5017574;28;20612;-78
2023/06/20 03:26:18;;;;;;;3.83;3.33;;;23.70;97.10;;;;;;5013686;28;20707;-78
2023/06/20 03:28:44;;;;;;;4.00;3.20;;;23.70;97.30;;;;;;4996747;28;20264;-78
2023/06/20 03:31:10;;;;;;;5.80;4.03;;;23.70;97.60;;;;;;5020033;28;20651;-78
2023/06/20 03:33:36;;;;;;;3.93;3.53;;;23.70;97.90;;;;;;4998034;28;20652;-78
2023/06/20 03:36:03;;;;;;;3.50;3.00;;;23.70;98.10;;;;;;4993627;28;20175;-78
2023/06/20 03:38:28;;;;;;;3.30;2.87;;;23.60;98.30;;;;;;4977374;28;20855;-79
2023/06/20 03:40:54;;;;;;;4.20;3.10;;;23.60;98.60;;;;;;4993281;28;20637;-78
2023/06/20 03:43:20;;;;;;;4.10;3.17;;;23.60;98.80;;;;;;4993757;28;20189;-78
2023/06/20 03:45:46;;;;;;;3.00;2.60;;;23.60;99.00;;;;;;4993351;28;20166;-78
2023/06/20 03:48:12;;;;;;;4.67;2.60;;;23.60;99.10;;;;;;4977347;28;20586;-79
2023/06/20 03:50:38;;;;;;;3.70;2.53;;;23.60;99.40;;;;;;4992824;28;20598;-78
2023/06/20 03:53:07;;;;;;;7.60;3.83;;;23.60;99.50;;;;;;4976816;28;20617;-78
2023/06/20 03:55:33;;;;;;;3.10;2.80;;;23.60;99.70;;;;;;5011079;28;20608;-78
2023/06/20 03:57:59;;;;;;;3.13;2.83;;;23.60;99.90;;;;;;5018359;28;20268;-78
2023/06/20 04:00:26;;;;;;;2.87;2.40;;;23.50;99.90;;;;;;5017827;28;20616;-78
2023/06/20 04:02:52;;;;;;;3.97;3.30;;;23.50;99.90;;;;;;5012241;28;20620;-78
2023/06/20 04:05:17;;;;;;;3.50;2.83;;;23.50;99.90;;;;;;5012999;28;20942;-78
2023/06/20 04:07:43;;;;;;;3.67;2.83;;;23.40;99.90;;;;;;5028868;28;20583;-78
2023/06/20 04:10:11;;;;;;;4.37;2.90;;;23.40;99.90;;;;;;5012512;28;20188;-79
2023/06/20 04:12:38;;;;;;;3.10;2.80;;;23.30;99.90;;;;;;5012323;28;20192;-79
2023/06/20 04:15:06;;;;;;;4.90;3.07;;;23.30;99.90;;;;;;4996550;28;20619;-79
2023/06/20 04:17:31;;;;;;;3.60;2.33;;;23.30;99.90;;;;;;5005675;28;20601;-79
2023/06/20 04:19:59;;;;;;;3.20;2.60;;;23.40;99.90;;;;;;4992734;28;20628;-79
2023/06/20 04:22:26;;;;;;;4.10;2.90;;;23.40;99.90;;;;;;4994520;28;20209;-79
2023/06/20 04:24:53;;;;;;;4.60;3.17;;;23.40;99.90;;;;;;4978383;28;21188;-79
2023/06/20 04:27:19;;;;;;;3.07;2.77;;;23.50;99.90;;;;;;4990226;28;20582;-79
2023/06/20 04:29:47;;;;;;;3.53;3.00;;;23.50;99.90;;;;;;4959172;28;20590;-78
2023/06/20 04:32:13;;;;;;;4.13;2.90;;;23.60;99.90;;;;;;4957839;28;20620;-79
2023/06/20 04:34:38;;;;;;;3.83;3.30;;;23.60;99.90;;;;;;4980850;28;20209;-78
2023/06/20 04:37:04;;;;;;;3.87;3.23;;;23.60;99.90;;;;;;5025043;28;20181;-79
2023/06/20 04:39:30;;;;;;;5.50;3.07;;;23.70;99.90;;;;;;5019001;28;20166;-78
2023/06/20 04:41:56;;;;;;;4.20;3.37;;;23.70;99.90;;;;;;5017749;28;20169;-79
2023/06/20 04:44:22;;;;;;;4.33;3.40;;;23.70;99.90;;;;;;5018380;28;20284;-78
2023/06/20 04:46:48;;;;;;;5.83;3.57;;;23.80;99.90;;;;;;5016910;28;20665;-78
2023/06/20 04:49:14;;;;;;;4.57;3.33;;;23.80;99.90;;;;;;5017132;28;20213;-79
2023/06/20 04:51:40;;;;;;;4.00;3.60;;;23.90;99.90;;;;;;5031904;28;20634;-79
2023/06/20 04:54:07;;;;;;;4.83;4.33;;;23.90;99.90;;;;;;5000090;28;20607;-79
2023/06/20 04:56:40;;;;;;;4.40;4.00;;;23.90;99.90;;;;;;5016513;28;20580;-79
2023/06/20 04:59:08;;;;;;;4.73;4.00;;;23.80;99.90;;;;;;4999969;28;20675;-79
2023/06/20 05:01:34;;;;;;;4.00;3.23;;;23.80;99.90;;;;;;5015643;28;20675;-79
2023/06/20 05:04:03;;;;;;;3.80;3.40;;;23.90;99.90;;;;;;5015544;28;20628;-78
2023/06/20 05:06:30;;;;;;;5.33;4.20;;;24.00;99.90;;;;;;4999389;28;20626;-78
2023/06/20 05:08:56;;;;;;;5.23;4.80;;;24.10;99.90;;;;;;5015468;28;20964;-78
2023/06/20 05:11:22;;;;;;;7.17;3.40;;;24.20;99.90;;;;;;5015834;28;20913;-79
2023/06/20 05:13:47;;;;;;;4.60;3.83;;;24.30;99.90;;;;;;5013768;28;20697;-78
2023/06/20 05:16:14;;;;;;;4.77;4.20;;;24.30;99.90;;;;;;5013947;28;20174;-78
2023/06/20 05:18:40;;;;;;;7.57;3.83;;;24.30;99.90;;;;;;4979819;28;20570;-78
2023/06/20 05:21:06;;;;;;;3.57;2.80;;;24.40;99.90;;;;;;4994632;28;20214;-78
2023/06/20 05:23:32;;;;;;;4.00;3.30;;;24.40;99.90;;;;;;5013184;28;20632;-78
2023/06/20 05:25:57;;;;;;;4.60;3.93;;;24.40;99.90;;;;;;4971122;28;20175;-78
2023/06/20 05:28:23;;;;;;;4.93;2.93;;;24.30;99.90;;;;;;4995912;28;20179;-78
2023/06/20 05:30:49;;;;;;;6.33;3.43;;;24.30;99.90;;;;;;4978484;28;20617;-78
2023/06/20 05:33:15;;;;;;;3.53;2.90;;;24.40;99.90;;;;;;4995511;28;20206;-78
2023/06/20 05:35:41;;;;;;;3.60;2.80;;;24.50;99.90;;;;;;4983668;28;20165;-78
2023/06/20 05:38:07;;;;;;;3.40;2.87;;;24.50;99.90;;;;;;5032957;28;20933;-78
2023/06/20 05:40:32;;;;;;;3.50;3.10;;;24.70;99.90;;;;;;5014568;28;20636;-78
2023/06/20 05:42:58;;;;;;;4.97;3.20;;;24.90;99.90;;;;;;5014297;28;20706;-78
2023/06/20 05:45:24;;;;;;;4.47;3.43;;;25.10;99.90;;;;;;5014667;28;20166;-76
2023/06/20 05:47:49;;;;;;;3.23;2.93;;;25.10;99.90;;;;;;5018650;28;20242;-76
2023/06/20 05:50:15;;;;;;;3.47;3.10;;;25.20;99.90;;;;;;5013910;28;20215;-76
2023/06/20 05:52:42;;;;;;;5.23;3.03;;;25.20;99.90;;;;;;5031415;28;20177;-75
2023/06/20 05:55:08;;;;;;;2.73;2.33;;;25.20;99.90;;;;;;5014694;28;20270;-74
2023/06/20 05:57:33;;;;;;;3.83;3.23;;;25.20;99.90;;;;;;5014627;28;20674;-75
2023/06/20 05:59:59;;;;;;;4.80;3.87;;;25.30;99.90;;;;;;5014217;28;20640;-73
2023/06/20 06:02:25;;;;;;;4.20;3.27;;;25.30;99.90;;;;;;5032244;28;20181;-73
2023/06/20 06:04:51;;;;;;;7.00;3.90;;;25.40;99.90;;;;;;4999168;28;20210;-73
2023/06/20 06:07:17;;;;;;;4.63;3.10;;;25.70;99.90;;;;;;4997074;28;20588;-73
2023/06/20 06:09:42;;;;;;;5.10;3.73;;;26.10;99.90;;;;;;5011479;28;20249;-73
2023/06/20 06:12:09;;;;;;;4.83;4.07;;;26.50;99.90;;;;;;4993523;28;20898;-74
2023/06/20 06:14:35;;;;;;;7.20;3.97;;;26.80;99.90;;;;;;4982942;28;20206;-74
2023/06/20 06:17:02;;;;;;;6.33;3.53;;;27.20;99.90;;;;;;5009408;28;20614;-74
2023/06/20 06:19:27;;;;;;;3.60;2.87;;;27.40;99.90;;;;;;5008327;28;20715;-74
2023/06/20 06:21:53;;;;;;;6.07;3.40;;;27.50;99.90;;;;;;4997401;28;20186;-74
2023/06/20 06:24:21;;;;;;;4.47;3.43;;;27.40;99.90;;;;;;4995620;28;20190;-74
2023/06/20 06:26:48;;;;;;;4.90;3.47;;;27.40;99.90;;;;;;4942416;28;20183;-75
2023/06/20 06:29:15;;;;;;;3.33;3.03;;;27.50;99.90;;;;;;4991978;28;20582;-74
2023/06/20 06:31:41;;;;;;;3.33;2.50;;;27.80;99.90;;;;;;4990447;28;20593;-76
2023/06/20 06:34:07;;;;;;;4.20;2.80;;;28.20;99.90;;;;;;5012022;28;20944;-75
2023/06/20 06:36:34;;;;;;;3.37;2.67;;;29.00;99.90;;;;;;5006560;28;20529;-75
2023/06/20 06:39:00;;;;;;;4.90;2.77;;;29.60;99.90;;;;;;5013452;28;20596;-75
2023/06/20 06:41:27;;;;;;;5.37;3.10;;;30.40;99.90;;;;;;5013181;28;20640;-75
2023/06/20 06:43:52;;;;;;;3.47;2.50;;;31.20;99.90;;;;;;5012865;28;20610;-75
2023/06/20 06:46:21;;;;;;;3.43;2.27;;;31.90;99.90;;;;;;5013658;28;20211;-74
2023/06/20 06:48:48;;;;;;;2.80;2.60;;;32.40;96.90;;;;;;5013348;28;21119;-75
2023/06/20 06:51:14;;;;;;;5.00;2.47;;;32.70;95.80;;;;;;5013292;28;20601;-73
2023/06/20 06:53:39;;;;;;;2.60;2.30;;;33.00;94.20;;;;;;5028298;28;20671;-74
2023/06/20 06:56:05;;;;;;;4.13;2.60;;;33.40;93.60;;;;;;4992850;28;21179;-74
2023/06/20 06:58:31;;;;;;;2.67;2.47;;;33.90;92.70;;;;;;4993981;28;20186;-74
2023/06/20 07:00:56;;;;;;;4.43;2.50;;;34.30;90.00;;;;;;4989421;28;20234;-74
2023/06/20 07:03:22;;;;;;;3.47;2.47;;;34.50;86.20;;;;;;5013210;28;20228;-74
2023/06/20 07:05:48;;;;;;;3.47;1.87;;;34.80;84.80;;;;;;5012738;28;20182;-78
2023/06/20 07:08:13;;;;;;;2.67;2.10;;;35.30;84.00;;;;;;5013507;28;20184;-76
2023/06/20 07:10:39;;;;;;;3.60;2.17;;;35.60;80.70;;;;;;5030032;28;20531;-77
2023/06/20 07:13:08;;;;;;;2.83;1.87;;;35.70;77.80;;;;;;5012506;28;20277;-76
2023/06/20 07:15:34;;;;;;;3.67;2.20;;;36.00;75.40;;;;;;5009159;28;20178;-76
2023/06/20 07:18:00;;;;;;;3.73;2.07;;;36.00;71.00;;;;;;4984602;28;20588;-76
2023/06/20 07:20:26;;;;;;;2.33;1.60;;;35.90;70.50;;;;;;4966204;28;20245;-76
2023/06/20 07:22:52;;;;;;;2.90;2.60;;;36.00;70.10;;;;;;4993530;28;20608;-76
2023/06/20 07:25:19;;;;;;;2.63;1.70;;;35.90;66.30;;;;;;5029415;28;20180;-77
2023/06/20 07:27:44;;;;;;;4.90;2.80;;;35.90;67.10;;;;;;5012350;28;20182;-77
2023/06/20 07:30:10;;;;;;;4.23;2.53;;;36.00;64.70;;;;;;5012219;28;20583;-76
2023/06/20 07:32:36;;;;;;;4.80;2.57;;;36.00;65.70;;;;;;4995184;28;20189;-77
2023/06/20 07:35:02;;;;;;;3.10;2.07;;;36.10;65.80;;;;;;4989129;28;20724;-76
2023/06/20 07:37:27;;;;;;;5.00;1.97;;;36.20;63.90;;;;;;5013730;28;20181;-76
2023/06/20 07:39:53;;;;;;;3.63;3.10;;;36.20;62.20;;;;;;5028900;28;20659;-76
2023/06/20 07:42:19;;;;;;;3.13;2.40;;;36.20;60.40;;;;;;5029702;28;20636;-76
2023/06/20 07:44:45;;;;;;;3.40;2.33;;;36.30;61.00;;;;;;5011972;28;20236;-76
2023/06/20 07:47:13;;;;;;;2.80;2.10;;;36.40;61.40;;;;;;5018155;28;20593;-78
2023/06/20 07:49:38;;;;;;;3.27;2.40;;;36.60;60.00;;;;;;5016862;28;20182;-80
2023/06/20 07:52:04;;;;;;;2.47;2.27;;;36.80;60.80;;;;;;4992709;28;20657;-80
2023/06/20 07:54:30;;;;;;;5.10;2.10;;;37.10;59.50;;;;;;5002039;28;20210;-79
2023/06/20 07:56:56;;;;;;;4.03;2.37;;;37.20;59.10;;;;;;4984106;28;20625;-80
2023/06/20 07:59:22;;;;;;;3.57;2.10;;;37.20;58.10;;;;;;4994993;28;20585;-80
2023/06/20 08:01:48;;;;;;;5.97;2.50;;;37.10;56.70;;;;;;4988608;28;20214;-81
2023/06/20 08:04:15;;;;;;;2.20;1.63;;;37.00;57.70;;;;;;4988587;28;20814;-79
2023/06/20 08:06:41;;;;;;;2.80;2.10;;;37.30;58.70;;;;;;5023856;28;20672;-80
2023/06/20 08:09:08;;;;;;;3.47;2.17;;;37.70;58.20;;;;;;5023493;28;21156;-78
2023/06/20 08:11:34;;;;;;;3.60;2.10;;;38.00;56.80;;;;;;5013681;28;20186;-77
2023/06/20 08:14:00;;;;;;;3.23;2.10;;;38.10;56.10;;;;;;5022886;28;20718;-78
2023/06/20 08:16:26;;;;;;;2.40;1.93;;;38.10;55.00;;;;;;5030351;28;20158;-77
2023/06/20 08:18:52;;;;;;;3.00;2.10;;;38.30;55.70;;;;;;5028740;28;20596;-78
2023/06/20 08:21:18;;;;;;;3.13;2.50;;;38.50;55.20;;;;;;4994830;28;20291;-79
2023/06/20 08:23:45;;;;;;;2.00;1.70;;;38.60;54.10;;;;;;5008331;28;20619;-80
2023/06/20 08:26:11;;;;;;;3.30;2.50;;;38.70;55.00;;;;;;5011119;28;20181;-78
2023/06/20 08:28:36;;;;;;;2.67;2.03;;;39.00;53.70;;;;;;5014247;28;20570;-79
2023/06/20 08:31:04;;;;;;;2.70;2.03;;;38.90;53.90;;;;;;4997355;28;20862;-79
2023/06/20 08:33:30;;;;;;;3.90;2.23;;;39.00;53.30;;;;;;4991403;28;20310;-79
2023/06/20 08:35:56;;;;;;;3.03;1.73;;;39.10;53.20;;;;;;5020154;28;20716;-79
2023/06/20 08:38:22;;;;;;;4.00;2.70;;;39.40;53.80;;;;;;4991134;28;20182;-79
2023/06/20 08:40:48;;;;;;;4.23;1.73;;;39.70;51.80;;;;;;4998370;28;20644;-79
2023/06/20 08:43:17;;;;;;;3.40;2.00;;;39.80;50.90;;;;;;5010538;28;20190;-79
2023/06/20 08:45:44;;;;;;;3.37;1.83;;;39.70;49.80;;;;;;5032607;28;20611;-79
2023/06/20 08:48:10;;;;;;;2.30;1.57;;;39.70;50.60;;;;;;5035202;28;20584;-79
2023/06/20 08:50:38;;;;;;;3.03;1.83;;;39.50;49.30;;;;;;5020377;28;20625;-79
2023/06/20 08:53:09;;;;;;;4.13;2.17;;;39.30;48.90;;;;;;5018882;28;20576;-79
2023/06/20 08:55:38;;;;;;;2.30;1.80;;;39.00;48.70;;;;;;5007921;28;20977;-79
2023/06/20 08:58:08;;;;;;;2.60;1.93;;;38.70;48.70;;;;;;5040627;28;20572;-79
2023/06/20 09:00:34;;;;;;;3.60;2.63;;;38.70;49.30;;;;;;4986177;28;20643;-79
2023/06/20 09:03:00;;;;;;;3.60;2.67;;;38.70;48.90;;;;;;5020550;28;20585;-78
2023/06/20 09:05:31;;;;;;;2.40;2.20;;;38.50;49.00;;;;;;4998262;28;20731;-78
2023/06/20 09:07:57;;;;;;;3.97;3.07;;;38.30;48.40;;;;;;4998272;28;20659;-78
2023/06/20 09:10:23;;;;;;;2.93;2.53;;;38.00;48.20;;;;;;4994177;28;20578;-77
2023/06/20 09:12:58;;;;;;;4.83;2.83;;;37.90;48.60;;;;;;4982560;28;20186;-78
2023/06/20 09:15:26;;;;;;;5.03;2.30;;;37.70;48.90;;;;;;5001272;28;20676;-79
2023/06/20 09:17:56;;;;;;;2.63;2.13;;;37.90;49.90;;;;;;5001927;28;21124;-79
2023/06/20 09:20:29;;;;;;;3.43;2.00;;;38.20;49.40;;;;;;4974152;28;20677;-78
2023/06/20 09:22:55;;;;;;;3.13;2.47;;;38.50;49.90;;;;;;4986825;28;20594;-79
2023/06/20 09:25:23;;;;;;;2.67;2.43;;;38.70;48.90;;;;;;5013419;28;20647;-80
2023/06/20 09:27:50;;;;;;;3.80;2.30;;;38.70;47.80;;;;;;5017056;28;20727;-80
2023/06/20 09:30:16;;;;;;;3.00;2.60;;;38.60;47.80;;;;;;5004061;28;20585;-79
2023/06/20 09:32:42;;;;;;;3.03;2.37;;;38.50;48.50;;;;;;4983836;28;20696;-79
2023/06/20 09:35:14;;;;;;;3.93;2.70;;;38.50;47.70;;;;;;5012107;28;20257;-79
2023/06/20 09:37:47;;;;;;;2.50;2.30;;;38.60;47.80;;;;;;5027299;28;20576;-77
2023/06/20 09:40:21;;;;;;;2.83;2.63;;;38.90;48.10;;;;;;5032456;28;20628;-76
2023/06/20 09:42:48;;;;;;;3.30;2.07;;;38.90;46.90;;;;;;5013533;28;20588;-77
2023/06/20 09:45:16;;;;;;;2.53;2.30;;;38.80;47.60;;;;;;5032345;28;20608;-77
2023/06/20 09:47:44;;;;;;;2.97;2.20;;;39.10;47.80;;;;;;5030244;28;20619;-76
2023/06/20 09:50:16;;;;;;;2.10;1.90;;;39.40;48.20;;;;;;5029925;28;20667;-78
2023/06/20 09:53:03;;;;;;;3.40;2.27;;;39.60;47.50;;;;;;5050489;28;20584;-77
2023/06/20 09:55:34;;;;;;;2.60;2.40;;;39.90;47.60;;;;;;5029699;28;20577;-78
2023/06/20 09:58:02;;;;;;;6.77;2.93;;;40.00;46.40;;;;;;5021951;28;20612;-79
2023/06/20 10:00:29;;;;;;;3.63;3.30;;;39.80;45.70;;;;;;5013895;28;20678;-78
2023/06/20 10:02:59;;;;;;;3.87;2.83;;;39.40;45.30;;;;;;4973318;28;20598;-77
2023/06/20 10:05:27;;;;;;;3.80;2.70;;;39.10;45.20;;;;;;5012376;28;20708;-79
2023/06/20 10:07:57;;;;;;;3.30;3.00;;;38.80;45.50;;;;;;5022207;28;20613;-79
2023/06/20 10:10:23;;;;;;;3.23;2.57;;;38.30;45.40;;;;;;5008487;28;20578;-80
2023/06/20 10:12:49;;;;;;;2.40;2.00;;;37.90;46.00;;;;;;5010402;28;20582;-78
2023/06/20 10:15:16;;;;;;;2.83;2.50;;;37.90;46.80;;;;;;5020872;28;20627;-78
2023/06/20 10:17:43;;;;;;;3.70;2.17;;;37.80;47.00;;;;;;5045873;28;20577;-79
2023/06/20 10:20:44;;;;;;;2.43;2.23;;;37.60;47.00;;;;;;5026288;28;20634;-80
2023/06/20 10:23:10;;;;;;;2.50;2.00;;;37.40;47.40;;;;;;4988451;28;20590;-79
2023/06/20 10:25:53;;;;;;;2.07;1.87;;;37.40;47.30;;;;;;5007712;28;20641;-79
2023/06/20 10:28:22;;;;;;;2.20;2.00;;;37.40;47.30;;;;;;4974739;28;20574;-79
2023/06/20 10:30:53;;;;;;;3.70;2.17;;;37.50;47.50;;;;;;5017449;28;20601;-81
2023/06/20 10:33:36;;;;;;;3.13;2.93;;;37.60;48.00;;;;;;5000189;28;20677;-80
2023/06/20 10:36:04;;;;;;;2.67;2.47;;;37.60;48.60;;;;;;5021709;28;20601;-79
2023/06/20 10:38:37;;;;;;;4.33;2.07;;;37.90;48.80;;;;;;5007932;28;20574;-79
2023/06/20 10:41:22;;;;;;;2.80;2.10;;;38.40;48.70;;;;;;5000087;28;20634;-78
2023/06/20 10:43:58;;;;;;;2.20;1.70;;;38.80;48.20;;;;;;4992479;28;20638;-78
2023/06/20 10:46:36;;;;;;;2.90;2.40;;;39.30;48.20;;;;;;5010816;28;20586;-78
2023/06/20 10:49:07;;;;;;;2.20;1.90;;;39.40;47.00;;;;;;4992200;28;20566;-79
2023/06/20 10:51:57;;;;;;;2.77;2.57;;;39.60;47.20;;;;;;4966657;28;20593;-77
2023/06/20 10:54:33;;;;;;;2.43;2.20;;;39.70;46.60;;;;;;4983835;28;21036;-78
2023/06/20 10:56:59;;;;;;;4.27;2.20;;;40.10;46.60;;;;;;4982231;28;20596;-78
2023/06/20 10:59:25;;;;;;;2.30;2.00;;;40.40;46.60;;;;;;4974456;28;20582;-77
2023/06/20 11:01:50;;;;;;;5.10;4.30;;;40.50;44.90;;;;;;5006234;28;20234;-78
2023/06/20 11:04:17;;;;;;;2.57;2.37;;;40.00;43.50;;;;;;4976029;28;20561;-77
2023/06/20 11:06:43;;;;;;;4.00;2.47;;;39.30;42.90;;;;;;4996451;28;20177;-77
2023/06/20 11:09:20;;;;;;;2.90;2.70;;;38.80;43.30;;;;;;4961863;28;20586;-78
2023/06/20 11:11:46;;;;;;;2.30;2.10;;;38.40;44.70;;;;;;4961336;28;20688;-77
2023/06/20 11:14:14;;;;;;;2.60;2.07;;;38.20;45.20;;;;;;4964116;28;20628;-76
2023/06/20 11:16:42;;;;;;;2.87;2.67;;;38.00;45.10;;;;;;5002514;28;20608;-77
2023/06/20 11:19:08;;;;;;;3.20;2.70;;;37.70;45.20;;;;;;4996525;28;20593;-77
2023/06/20 11:21:34;;;;;;;4.20;2.90;;;37.50;45.90;;;;;;5022629;28;20644;-76
2023/06/20 11:24:04;;;;;;;3.47;2.80;;;37.40;45.90;;;;;;5029045;28;20612;-77
2023/06/20 11:26:30;;;;;;;3.40;3.00;;;37.00;46.20;;;;;;5012786;28;20658;-76
2023/06/20 11:29:03;;;;;;;4.10;3.50;;;36.70;46.10;;;;;;5030494;28;20588;-76
2023/06/20 11:31:29;;;;;;;2.80;2.60;;;36.40;47.10;;;;;;5011720;28;20599;-76
2023/06/20 11:34:06;;;;;;;6.23;2.77;;;36.20;47.20;;;;;;5029297;28;20635;-76
2023/06/20 11:36:36;;;;;;;3.40;2.40;;;35.90;47.30;;;;;;5004876;28;20637;-75
2023/06/20 11:39:09;;;;;;;2.47;2.20;;;36.00;48.20;;;;;;5023258;28;20635;-75
2023/06/20 11:41:36;;;;;;;2.43;1.97;;;36.10;48.00;;;;;;4991953;28;20641;-76
2023/06/20 11:44:03;;;;;;;3.73;2.80;;;36.40;48.60;;;;;;4992356;28;20609;-76
2023/06/20 11:46:29;;;;;;;3.10;2.73;;;36.70;48.50;;;;;;5010214;28;20639;-76
2023/06/20 11:48:59;;;;;;;3.50;2.70;;;37.00;48.20;;;;;;4986759;28;20647;-76
2023/06/20 11:51:26;;;;;;;2.60;2.40;;;37.10;47.70;;;;;;4994859;28;20577;-76
2023/06/20 11:54:12;;;;;;;2.50;2.30;;;37.00;47.40;;;;;;5011913;28;20620;-76
2023/06/20 11:56:39;;;;;;;2.47;2.27;;;37.00;46.90;;;;;;5030369;28;20579;-76
2023/06/20 11:59:05;;;;;;;2.20;1.90;;;37.00;47.00;;;;;;4991161;28;20652;-76
2023/06/20 12:01:32;;;;;;;2.77;2.40;;;37.10;47.10;;;;;;4990034;28;20653;-76
2023/06/20 12:04:06;;;;;;;1.70;1.40;;;37.10;47.00;;;;;;4990241;28;20186;-76
2023/06/20 12:06:34;;;;;;;1.90;1.57;;;37.10;47.20;;;;;;4973083;28;20837;-76
2023/06/20 12:09:03;;;;;;;4.83;3.10;;;37.10;46.60;;;;;;4977334;28;20625;-76
2023/06/20 12:11:30;;;;;;;2.67;1.80;;;37.00;45.50;;;;;;4972513;28;20667;-76
2023/06/20 12:13:56;;;;;;;3.30;3.00;;;36.90;45.50;;;;;;5008737;28;20621;-76
2023/06/20 12:16:23;;;;;;;7.83;3.00;;;36.60;46.10;;;;;;5002560;28;20586;-75
2023/06/20 12:18:51;;;;;;;3.43;2.40;;;36.40;46.70;;;;;;4973150;28;20630;-76
2023/06/20 12:21:17;;;;;;;2.60;2.40;;;36.40;47.10;;;;;;4971426;28;20645;-75
2023/06/20 12:23:43;;;;;;;3.20;1.90;;;36.40;47.10;;;;;;5000736;28;20700;-76
2023/06/20 12:26:09;;;;;;;2.57;2.37;;;36.40;46.90;;;;;;4978653;28;20602;-75
2023/06/20 12:28:36;;;;;;;4.37;3.53;;;36.50;46.80;;;;;;4972607;28;20590;-75
2023/06/20 12:31:03;;;;;;;5.83;5.33;;;36.50;46.80;;;;;;4990027;28;20570;-76
2023/06/20 12:33:29;;;;;;;3.63;3.33;;;36.40;46.70;;;;;;4992919;28;20694;-76
2023/06/20 12:35:55;;;;;;;3.00;2.60;;;36.30;46.90;;;;;;4987280;28;20605;-76
2023/06/20 12:38:21;;;;;;;3.80;2.13;;;36.10;46.70;;;;;;4989511;28;20201;-76
2023/06/20 12:40:47;;;;;;;3.33;3.03;;;35.80;46.70;;;;;;4973829;28;20297;-77
2023/06/20 12:43:12;;;;;;;3.60;2.90;;;35.70;47.10;;;;;;5011300;28;20714;-77
2023/06/20 12:45:38;;;;;;;4.40;3.33;;;35.50;47.20;;;;;;5007810;28;20655;-76
2023/06/20 12:48:04;;;;;;;3.30;3.00;;;35.30;47.30;;;;;;4992276;28;20233;-76
2023/06/20 12:50:31;;;;;;;3.80;2.50;;;35.00;47.60;;;;;;4991118;28;20273;-75
2023/06/20 12:52:57;;;;;;;4.87;3.07;;;34.80;48.10;;;;;;4975468;28;20612;-76